createdAt,value
2022-10-31T00:01:43.278Z,51.70
2022-10-31T00:04:29.713Z,50.75
2022-10-31T00:07:07.823Z,54.00
2022-10-31T00:09:51.338Z,50.50
2022-10-31T00:12:31.724Z,53.63
2022-10-31T00:15:13.003Z,50.28
2022-10-31T00:18:06.576Z,52.90
2022-10-31T00:20:58.973Z,52.30
2022-10-31T00:23:34.526Z,52.88
2022-10-31T00:26:12.822Z,51.75
2022-10-31T00:28:52.267Z,53.67
2022-10-31T00:31:42.287Z,51.75
2022-10-31T00:34:24.868Z,53.95
2022-10-31T00:37:05.038Z,58.53
2022-10-31T00:39:46.319Z,56.55
2022-10-31T00:42:29.748Z,54.88
2022-10-31T00:45:11.528Z,54.78
2022-10-31T00:47:45.953Z,55.83
2022-10-31T00:50:35.693Z,50.47
2022-10-31T00:53:24.769Z,53.13
2022-10-31T00:56:09.539Z,52.53
2022-10-31T00:58:51.314Z,53.60
2022-10-31T01:01:29.058Z,49.40
2022-10-31T01:04:13.971Z,54.10
2022-10-31T01:06:56.549Z,51.95
2022-10-31T01:09:40.396Z,53.10
2022-10-31T01:12:24.119Z,51.30
2022-10-31T01:14:59.817Z,53.90
2022-10-31T01:17:43.653Z,53.13
2022-10-31T01:20:32.698Z,52.30
2022-10-31T01:23:13.711Z,50.70
2022-10-31T01:25:59.763Z,53.58
2022-10-31T01:28:38.243Z,53.20
2022-10-31T01:31:16.018Z,53.38
2022-10-31T01:33:54.800Z,50.15
2022-10-31T01:36:52.372Z,52.83
2022-10-31T01:39:37.791Z,52.40
2022-10-31T01:42:33.678Z,49.85
2022-10-31T01:45:14.825Z,50.58
2022-10-31T01:48:02.874Z,54.60
2022-10-31T01:50:41.577Z,51.08
2022-10-31T01:53:25.985Z,53.17
2022-10-31T01:56:05.916Z,56.33
2022-10-31T01:58:44.717Z,56.67
2022-10-31T02:04:16.690Z,53.75
2022-10-31T02:07:01.795Z,58.42
2022-10-31T02:09:47.346Z,58.53
2022-10-31T02:12:35.739Z,56.83
2022-10-31T02:15:22.040Z,56.72
2022-10-31T02:18:17.743Z,59.17
2022-10-31T02:21:13.393Z,57.58
2022-10-31T02:24:05.661Z,54.90
2022-10-31T02:30:05.968Z,53.05
2022-10-31T02:33:14.900Z,53.53
2022-10-31T02:36:34.474Z,55.05
2022-10-31T02:39:31.835Z,54.58
2022-10-31T02:42:17.658Z,59.10
2022-10-31T02:45:15.910Z,56.30
2022-10-31T02:48:09.432Z,59.67
2022-10-31T02:50:55.524Z,61.88
2022-10-31T02:53:36.825Z,57.58
2022-10-31T02:56:20.783Z,57.97
2022-10-31T02:59:11.662Z,57.17
2022-10-31T03:02:10.542Z,55.33
2022-10-31T03:05:01.660Z,51.83
2022-10-31T03:07:56.186Z,56.72
2022-10-31T03:10:57.130Z,54.15
2022-10-31T03:13:53.933Z,56.15
2022-10-31T03:17:00.839Z,55.53
2022-10-31T03:19:42.552Z,52.70
2022-10-31T03:22:29.076Z,52.40
2022-10-31T03:25:15.914Z,52.38
2022-10-31T03:27:57.559Z,52.70
2022-10-31T03:30:43.470Z,56.90
2022-10-31T03:33:27.549Z,52.60
2022-10-31T03:36:10.767Z,50.85
2022-10-31T03:38:57.340Z,53.00
2022-10-31T03:41:39.950Z,47.67
2022-10-31T03:44:16.652Z,49.45
2022-10-31T03:47:01.810Z,50.97
2022-10-31T03:49:43.092Z,48.85
2022-10-31T03:52:54.887Z,51.30
2022-10-31T03:55:43.257Z,50.80
2022-10-31T03:59:04.688Z,52.67
2022-10-31T04:01:53.985Z,54.95
2022-10-31T04:04:36.557Z,56.55
2022-10-31T04:07:12.828Z,54.03
2022-10-31T04:09:50.295Z,54.30
2022-10-31T04:12:35.770Z,57.03
2022-10-31T04:15:39.270Z,54.70
2022-10-31T04:18:23.498Z,59.58
2022-10-31T04:21:19.678Z,55.05
2022-10-31T04:23:55.013Z,51.05
2022-10-31T04:26:36.857Z,52.45
2022-10-31T04:29:21.153Z,50.35
2022-10-31T04:31:57.599Z,48.50
2022-10-31T04:34:47.775Z,54.03
2022-10-31T04:37:28.354Z,52.42
2022-10-31T04:40:12.659Z,54.28
2022-10-31T04:43:04.949Z,53.50
2022-10-31T04:45:54.548Z,55.38
2022-10-31T04:48:43.773Z,52.58
2022-10-31T04:51:28.640Z,52.67
2022-10-31T04:54:18.505Z,54.92
2022-10-31T04:57:15.540Z,50.95
2022-10-31T05:00:00.763Z,46.88
2022-10-31T05:02:53.510Z,45.67
2022-10-31T05:05:54.228Z,46.90
2022-10-31T05:08:39.543Z,48.25
2022-10-31T05:11:25.642Z,50.28
2022-10-31T05:14:13.563Z,48.30
2022-10-31T05:17:27.137Z,46.63
2022-10-31T05:20:33.866Z,46.72
2022-10-31T05:23:33.040Z,46.63
2022-10-31T05:26:16.544Z,47.95
2022-10-31T05:28:57.672Z,50.15
2022-10-31T05:31:41.016Z,51.67
2022-10-31T05:34:32.365Z,47.75
2022-10-31T05:37:31.503Z,47.65
2022-10-31T05:40:13.977Z,46.05
2022-10-31T05:42:47.683Z,47.20
2022-10-31T05:45:24.115Z,44.80
2022-10-31T05:48:11.663Z,48.42
2022-10-31T05:51:16.680Z,43.83
2022-10-31T05:54:01.423Z,46.05
2022-10-31T05:56:52.547Z,44.00
2022-10-31T05:59:35.639Z,45.10
2022-10-31T06:02:19.694Z,43.20
2022-10-31T06:05:20.716Z,45.20
2022-10-31T06:08:09.427Z,46.33
2022-10-31T06:10:49.110Z,44.65
2022-10-31T06:13:35.805Z,42.72
2022-10-31T06:16:27.942Z,42.80
2022-10-31T06:19:23.778Z,43.70
2022-10-31T06:21:53.554Z,44.97
2022-10-31T06:24:28.954Z,44.25
2022-10-31T06:27:46.680Z,45.60
2022-10-31T06:30:23.852Z,44.67
2022-10-31T06:33:10.545Z,45.20
2022-10-31T06:36:07.213Z,39.70
2022-10-31T06:38:51.250Z,36.55
2022-10-31T06:41:42.718Z,39.13
2022-10-31T06:44:22.720Z,39.05
2022-10-31T06:47:21.393Z,38.80
2022-10-31T06:50:22.648Z,37.83
2022-10-31T06:55:59.962Z,34.13
2022-10-31T06:58:56.516Z,33.90
2022-10-31T07:01:57.763Z,34.38
2022-10-31T07:04:35.576Z,34.30
2022-10-31T07:07:16.923Z,32.85
2022-10-31T07:10:04.682Z,34.13
2022-10-31T07:13:14.565Z,34.47
2022-10-31T07:15:59.071Z,33.60
2022-10-31T07:18:43.359Z,34.95
2022-10-31T07:21:29.667Z,36.60
2022-10-31T07:24:08.896Z,36.10
2022-10-31T07:26:55.433Z,34.65
2022-10-31T07:29:37.155Z,37.30
2022-10-31T07:32:22.960Z,37.90
2022-10-31T07:35:15.026Z,31.98
2022-10-31T07:38:19.599Z,33.05
2022-10-31T07:41:01.330Z,32.85
2022-10-31T07:43:48.342Z,31.98
2022-10-31T07:46:51.791Z,30.10
2022-10-31T07:49:53.460Z,28.90
2022-10-31T07:52:56.428Z,30.27
2022-10-31T07:55:47.425Z,29.58
2022-10-31T07:58:28.500Z,30.75
2022-10-31T08:01:07.013Z,28.55
2022-10-31T08:03:59.482Z,29.13
2022-10-31T08:07:08.330Z,25.67
2022-10-31T08:09:57.079Z,27.92
2022-10-31T08:12:38.895Z,29.42
2022-10-31T08:15:27.934Z,27.90
2022-10-31T08:18:09.703Z,27.73
2022-10-31T08:20:52.801Z,26.73
2022-10-31T08:23:30.606Z,27.50
2022-10-31T08:26:09.433Z,28.67
2022-10-31T08:28:56.823Z,28.27
2022-10-31T08:31:38.938Z,29.02
2022-10-31T08:34:47.651Z,28.63
2022-10-31T08:37:46.961Z,28.90
2022-10-31T08:40:25.867Z,27.95
2022-10-31T08:43:38.221Z,26.40
2022-10-31T08:46:16.891Z,27.67
2022-10-31T08:48:56.332Z,25.27
2022-10-31T08:51:38.633Z,27.88
2022-10-31T08:54:19.558Z,29.05
2022-10-31T08:57:04.293Z,28.70
2022-10-31T08:59:54.810Z,27.58
2022-10-31T09:02:58.354Z,25.92
2022-10-31T09:05:34.115Z,26.02
2022-10-31T09:08:16.359Z,24.58
2022-10-31T09:11:05.513Z,23.92
2022-10-31T09:14:04.062Z,23.48
2022-10-31T09:16:47.741Z,23.02
2022-10-31T09:19:32.756Z,23.55
2022-10-31T09:22:11.012Z,24.38
2022-10-31T09:24:52.157Z,23.88
2022-10-31T09:27:36.826Z,26.02
2022-10-31T09:30:15.179Z,30.90
2022-10-31T09:32:49.368Z,26.40
2022-10-31T09:35:44.392Z,28.70
2022-10-31T09:38:29.902Z,27.08
2022-10-31T09:41:27.639Z,24.08
2022-10-31T09:44:24.342Z,23.90
2022-10-31T09:47:47.391Z,23.55
2022-10-31T09:51:20.216Z,25.85
2022-10-31T09:54:20.473Z,25.52
2022-10-31T09:57:01.273Z,24.83
2022-10-31T09:59:45.822Z,25.67
2022-10-31T10:02:37.873Z,26.75
2022-10-31T10:05:53.368Z,23.42
2022-10-31T10:08:39.778Z,23.10
2022-10-31T10:11:40.824Z,25.13
2022-10-31T10:14:51.587Z,23.50
2022-10-31T10:17:57.350Z,24.70
2022-10-31T10:20:52.957Z,24.50
2022-10-31T10:24:05.976Z,23.00
2022-10-31T10:26:57.412Z,21.75
2022-10-31T10:29:48.039Z,23.85
2022-10-31T10:32:37.144Z,22.27
2022-10-31T10:35:36.548Z,22.83
2022-10-31T10:38:25.923Z,23.40
2022-10-31T10:41:11.694Z,21.98
2022-10-31T10:43:52.661Z,23.67
2022-10-31T10:46:56.812Z,24.25
2022-10-31T10:49:51.745Z,28.27
2022-10-31T10:52:50.976Z,26.48
2022-10-31T10:55:58.767Z,22.70
2022-10-31T10:58:37.398Z,23.85
2022-10-31T11:01:25.810Z,23.90
2022-10-31T11:04:03.814Z,21.80
2022-10-31T11:06:43.650Z,21.67
2022-10-31T11:09:31.682Z,20.88
2022-10-31T11:12:33.835Z,22.02
2022-10-31T11:15:21.041Z,23.25
2022-10-31T11:18:04.877Z,22.55
2022-10-31T11:20:57.601Z,24.35
2022-10-31T11:23:39.063Z,24.55
2022-10-31T11:26:25.852Z,23.35
2022-10-31T11:29:04.858Z,23.98
2022-10-31T11:31:49.585Z,21.17
2022-10-31T11:34:37.672Z,22.17
2022-10-31T11:37:28.054Z,23.05
2022-10-31T11:40:08.607Z,22.23
2022-10-31T11:42:56.233Z,24.30
2022-10-31T11:45:37.964Z,24.13
2022-10-31T11:48:26.484Z,26.02
2022-10-31T11:51:06.969Z,25.27
2022-10-31T11:53:50.674Z,27.88
2022-10-31T11:56:36.999Z,26.63
2022-10-31T11:59:32.275Z,26.05
2022-10-31T12:02:21.343Z,25.38
2022-10-31T12:05:12.932Z,26.23
2022-10-31T12:07:54.729Z,25.45
2022-10-31T12:10:49.835Z,23.50
2022-10-31T12:13:45.741Z,25.33
2022-10-31T12:16:24.884Z,27.20
2022-10-31T12:19:22.268Z,25.98
2022-10-31T12:22:32.485Z,25.40
2022-10-31T12:25:17.313Z,26.42
2022-10-31T12:28:12.886Z,25.70
2022-10-31T12:31:24.365Z,25.85
2022-10-31T12:34:16.416Z,25.90
2022-10-31T12:37:31.684Z,26.38
2022-10-31T12:40:14.815Z,28.55
2022-10-31T12:43:43.029Z,25.25
2022-10-31T12:46:58.559Z,27.45
2022-10-31T12:49:56.291Z,25.90
2022-10-31T12:55:43.004Z,26.63
2022-10-31T12:58:54.099Z,26.80
2022-10-31T13:01:46.733Z,27.30
2022-10-31T13:04:19.521Z,26.65
2022-10-31T13:07:10.695Z,27.70
2022-10-31T13:10:00.751Z,26.38
2022-10-31T13:12:43.094Z,26.65
2022-10-31T13:16:14.647Z,26.67
2022-10-31T13:19:04.037Z,26.85
2022-10-31T13:22:04.994Z,29.65
2022-10-31T13:24:51.812Z,26.88
2022-10-31T13:27:48.838Z,26.67
2022-10-31T13:30:33.658Z,27.88
2022-10-31T13:34:10.878Z,30.10
2022-10-31T13:37:18.945Z,28.30
2022-10-31T13:39:49.883Z,26.52
2022-10-31T13:42:42.831Z,29.13
2022-10-31T13:45:30.439Z,28.90
2022-10-31T13:48:18.206Z,28.38
2022-10-31T13:51:12.000Z,28.65
2022-10-31T13:54:59.645Z,29.30
2022-10-31T13:58:01.621Z,29.60
2022-10-31T14:00:45.118Z,27.77
2022-10-31T14:03:57.720Z,27.58
2022-10-31T14:06:49.414Z,29.02
2022-10-31T14:09:36.208Z,30.15
2022-10-31T14:12:22.469Z,30.17
2022-10-31T14:15:07.679Z,30.25
2022-10-31T14:18:00.625Z,30.52
2022-10-31T14:20:57.895Z,32.00
2022-10-31T14:23:45.497Z,31.02
2022-10-31T14:26:29.441Z,34.17
2022-10-31T14:29:26.761Z,33.08
2022-10-31T14:32:17.625Z,34.25
2022-10-31T14:35:17.563Z,33.30
2022-10-31T14:38:10.854Z,34.00
2022-10-31T14:40:51.153Z,33.30
2022-10-31T14:43:49.608Z,37.03
2022-10-31T14:47:31.392Z,34.55
2022-10-31T14:50:34.305Z,32.70
2022-10-31T14:53:20.346Z,33.97
2022-10-31T14:56:06.754Z,34.08
2022-10-31T14:58:47.718Z,32.90
2022-10-31T15:02:10.423Z,32.40
2022-10-31T15:05:05.424Z,35.08
2022-10-31T15:07:59.176Z,35.38
2022-10-31T15:10:46.683Z,38.83
2022-10-31T15:13:31.240Z,37.83
2022-10-31T15:16:21.676Z,40.13
2022-10-31T15:19:01.812Z,36.63
2022-10-31T15:22:05.734Z,34.63
2022-10-31T15:24:50.154Z,36.45
2022-10-31T15:27:25.693Z,36.78
2022-10-31T15:30:19.926Z,36.80
2022-10-31T15:32:59.579Z,35.20
2022-10-31T15:35:49.222Z,37.38
2022-10-31T15:38:27.315Z,35.83
2022-10-31T15:41:34.214Z,34.17
2022-10-31T15:44:23.132Z,33.33
2022-10-31T15:47:22.617Z,36.30
2022-10-31T15:49:55.009Z,37.03
2022-10-31T15:52:48.156Z,34.80
2022-10-31T15:55:46.795Z,36.85
2022-10-31T15:58:28.083Z,33.88
2022-10-31T16:01:25.497Z,34.65
2022-10-31T16:04:20.962Z,39.38
2022-10-31T16:07:21.793Z,38.08
2022-10-31T16:10:22.942Z,39.88
2022-10-31T16:13:07.282Z,39.22
2022-10-31T16:16:08.927Z,41.10
2022-10-31T16:19:18.294Z,40.53
2022-10-31T16:22:16.965Z,37.80
2022-10-31T16:25:01.330Z,40.25
2022-10-31T16:27:53.881Z,41.72
2022-10-31T16:30:32.119Z,40.42
2022-10-31T16:33:12.424Z,42.40
2022-10-31T16:35:48.792Z,45.63
2022-10-31T16:38:37.978Z,47.30
2022-10-31T16:41:18.474Z,48.42
2022-10-31T16:44:18.468Z,41.58
2022-10-31T16:47:14.261Z,39.83
2022-10-31T16:49:50.732Z,41.60
2022-10-31T16:52:26.084Z,43.58
2022-10-31T16:55:10.431Z,45.10
2022-10-31T16:57:55.766Z,41.13
2022-10-31T17:00:40.869Z,42.60
2022-10-31T17:03:21.607Z,43.90
2022-10-31T17:06:08.575Z,43.58
2022-10-31T17:08:55.141Z,44.85
2022-10-31T17:11:49.477Z,43.88
2022-10-31T17:14:33.370Z,42.22
2022-10-31T17:20:20.674Z,38.72
2022-10-31T17:23:00.247Z,41.92
2022-10-31T17:25:36.385Z,43.42
2022-10-31T17:28:16.349Z,46.13
2022-10-31T17:31:00.909Z,42.53
2022-10-31T17:33:45.681Z,46.17
2022-10-31T17:36:34.336Z,47.63
2022-10-31T17:39:20.706Z,45.25
2022-10-31T17:42:13.036Z,45.28
2022-10-31T17:44:57.775Z,51.90
2022-10-31T17:47:35.704Z,55.05
2022-10-31T17:50:33.985Z,55.40
2022-10-31T17:53:25.229Z,52.30
2022-10-31T17:56:08.655Z,50.17
2022-10-31T17:58:38.879Z,51.00
2022-10-31T18:01:25.368Z,47.70
2022-10-31T18:04:12.514Z,48.30
2022-10-31T18:09:35.099Z,45.60
2022-10-31T18:12:13.677Z,47.00
2022-10-31T18:14:54.405Z,47.92
2022-10-31T18:17:42.408Z,49.72
2022-10-31T18:20:35.408Z,49.85
2022-10-31T18:23:23.162Z,49.70
2022-10-31T18:26:10.247Z,46.65
2022-10-31T18:29:01.871Z,50.78
2022-10-31T18:31:54.386Z,51.22
2022-10-31T18:34:41.119Z,51.20
2022-10-31T18:37:24.899Z,55.70
2022-10-31T18:39:58.652Z,50.40
2022-10-31T18:42:44.412Z,54.60
2022-10-31T18:45:33.881Z,55.53
2022-10-31T18:48:20.132Z,51.10
2022-10-31T18:50:59.898Z,51.28
2022-10-31T18:53:36.748Z,48.80
2022-10-31T18:56:20.914Z,47.55
2022-10-31T18:59:09.196Z,49.35
2022-10-31T19:01:47.912Z,44.20
2022-10-31T19:04:28.466Z,44.42
2022-10-31T19:07:23.803Z,43.20
2022-10-31T19:10:07.926Z,42.15
2022-10-31T19:12:58.572Z,42.90
2022-10-31T19:15:39.854Z,43.85
2022-10-31T19:18:27.670Z,45.72
2022-10-31T19:21:02.402Z,45.88
2022-10-31T19:23:50.782Z,49.08
2022-10-31T19:26:33.658Z,47.85
2022-10-31T19:29:17.664Z,50.17
2022-10-31T19:32:07.183Z,51.28
2022-10-31T19:34:53.872Z,47.50
2022-10-31T19:37:38.708Z,49.88
2022-10-31T19:40:17.516Z,52.83
2022-10-31T19:43:07.545Z,54.30
2022-10-31T19:45:55.539Z,52.25
2022-10-31T19:48:36.673Z,56.17
2022-10-31T19:51:31.801Z,54.35
2022-10-31T19:54:21.817Z,56.65
2022-10-31T19:57:05.454Z,58.85
2022-10-31T19:59:47.540Z,57.88
2022-10-31T20:02:37.349Z,57.65
2022-10-31T20:05:17.649Z,61.22
2022-10-31T20:07:46.371Z,59.45
2022-10-31T20:10:28.149Z,62.47
2022-10-31T20:13:08.824Z,65.15
2022-10-31T20:15:52.713Z,64.65
2022-10-31T20:18:40.648Z,63.28
2022-10-31T20:21:32.808Z,63.67
2022-10-31T20:24:22.742Z,60.17
2022-10-31T20:27:00.689Z,60.22
2022-10-31T20:29:42.648Z,67.30
2022-10-31T20:32:28.548Z,64.88
2022-10-31T20:35:15.411Z,61.20
2022-10-31T20:37:57.476Z,60.03
2022-10-31T20:40:43.451Z,63.00
2022-10-31T20:43:32.630Z,63.72
2022-10-31T20:46:29.289Z,58.38
2022-10-31T20:49:12.643Z,58.35
2022-10-31T20:51:58.579Z,62.08
2022-10-31T20:54:44.422Z,58.97
2022-10-31T20:57:29.226Z,60.85
2022-10-31T21:00:08.307Z,55.03
2022-10-31T21:02:55.643Z,57.00
2022-10-31T21:05:36.631Z,56.63
2022-10-31T21:11:21.662Z,49.17
2022-10-31T21:14:05.532Z,49.67
2022-10-31T21:16:52.044Z,45.70
2022-10-31T21:19:34.524Z,48.33
2022-10-31T21:22:28.189Z,48.25
2022-10-31T21:25:16.382Z,47.40
2022-10-31T21:27:54.625Z,46.83
2022-10-31T21:30:40.654Z,43.95
2022-10-31T21:33:33.830Z,45.22
2022-10-31T21:36:19.039Z,44.00
2022-10-31T21:39:07.634Z,46.05
2022-10-31T21:41:58.048Z,45.67
2022-10-31T21:44:39.737Z,48.90
2022-10-31T21:47:20.683Z,44.38
2022-10-31T21:50:04.747Z,45.75
2022-10-31T21:52:36.858Z,46.50
2022-10-31T21:55:30.664Z,47.95
2022-10-31T21:58:18.271Z,47.58
2022-10-31T22:00:56.667Z,49.10
2022-10-31T22:03:45.771Z,48.55
2022-10-31T22:06:22.818Z,45.83
2022-10-31T22:09:08.389Z,47.50
2022-10-31T22:11:52.379Z,46.40
2022-10-31T22:14:47.837Z,42.70
2022-10-31T22:17:38.185Z,49.80
2022-10-31T22:20:29.300Z,49.00
2022-10-31T22:23:08.600Z,46.70
2022-10-31T22:25:46.754Z,45.33
2022-10-31T22:28:38.477Z,45.70
2022-10-31T22:31:16.529Z,45.10
2022-10-31T22:33:59.657Z,47.70
2022-10-31T22:36:46.656Z,46.22
2022-10-31T22:39:31.707Z,43.10
2022-10-31T22:42:12.378Z,45.08
2022-10-31T22:45:03.612Z,43.90
2022-10-31T22:47:43.844Z,39.72
2022-10-31T22:50:29.487Z,41.17
2022-10-31T22:53:15.780Z,41.80
2022-10-31T22:55:56.645Z,42.80
2022-10-31T22:58:29.090Z,42.95
2022-10-31T23:01:24.008Z,41.47
2022-10-31T23:04:00.750Z,41.20
2022-10-31T23:06:42.668Z,44.08
2022-10-31T23:09:35.511Z,41.67
2022-10-31T23:12:48.083Z,39.50
2022-10-31T23:15:32.627Z,41.70
2022-10-31T23:18:48.039Z,45.72
2022-10-31T23:21:44.028Z,42.88
2022-10-31T23:24:33.125Z,40.83
2022-10-31T23:27:21.675Z,42.47
2022-10-31T23:30:17.222Z,44.65
2022-10-31T23:33:07.728Z,44.45
2022-10-31T23:35:49.572Z,46.53
2022-10-31T23:38:54.108Z,48.15
2022-10-31T23:41:42.380Z,42.80
2022-10-31T23:44:26.179Z,45.60
2022-10-31T23:47:09.910Z,45.85
2022-10-31T23:49:56.436Z,40.55
2022-10-31T23:52:51.443Z,45.40
2022-10-31T23:55:28.881Z,44.28
2022-10-31T23:58:08.610Z,42.13
